createdAt,value
2022-11-20T00:00:11.635Z,88.20
2022-11-20T00:03:14.240Z,87.09
2022-11-20T00:06:18.470Z,88.48
2022-11-20T00:09:22.641Z,87.35
2022-11-20T00:12:25.305Z,87.41
2022-11-20T00:15:27.744Z,88.26
2022-11-20T00:18:30.300Z,88.13
2022-11-20T00:21:34.220Z,88.30
2022-11-20T00:24:42.883Z,87.40
2022-11-20T00:27:45.712Z,87.77
2022-11-20T00:30:48.137Z,87.40
2022-11-20T00:33:50.949Z,88.22
2022-11-20T00:36:53.436Z,87.64
2022-11-20T00:39:57.394Z,87.17
2022-11-20T00:42:59.824Z,87.97
2022-11-20T00:46:04.187Z,88.52
2022-11-20T00:49:06.630Z,87.72
2022-11-20T00:52:27.626Z,88.10
2022-11-20T00:55:31.367Z,88.34
2022-11-20T00:58:35.926Z,88.28
2022-11-20T01:01:38.901Z,87.70
2022-11-20T01:04:41.719Z,87.52
2022-11-20T01:07:44.158Z,88.90
2022-11-20T01:10:48.020Z,88.82
2022-11-20T01:13:52.078Z,87.92
2022-11-20T01:16:54.575Z,88.61
2022-11-20T01:19:56.970Z,88.01
2022-11-20T01:22:59.360Z,88.12
2022-11-20T01:26:05.556Z,86.98
2022-11-20T01:29:11.633Z,87.64
2022-11-20T01:32:14.051Z,87.01
2022-11-20T01:35:16.561Z,86.65
2022-11-20T01:38:21.039Z,88.29
2022-11-20T01:41:48.475Z,87.48
2022-11-20T01:44:55.384Z,88.12
2022-11-20T01:47:57.943Z,88.45
2022-11-20T01:51:02.478Z,88.02
2022-11-20T01:54:09.685Z,87.61
2022-11-20T01:57:15.032Z,88.37
2022-11-20T02:00:20.047Z,88.17
2022-11-20T02:03:22.661Z,88.77
2022-11-20T02:06:28.492Z,89.85
2022-11-20T02:09:30.978Z,88.02
2022-11-20T02:12:53.710Z,88.34
2022-11-20T02:15:56.450Z,88.90
2022-11-20T02:19:01.447Z,88.72
2022-11-20T02:22:11.216Z,88.81
2022-11-20T02:25:16.182Z,89.19
2022-11-20T02:28:19.292Z,87.64
2022-11-20T02:31:21.768Z,87.16
2022-11-20T02:34:24.218Z,87.68
2022-11-20T02:37:33.360Z,87.06
2022-11-20T02:40:37.391Z,88.15
2022-11-20T02:43:39.800Z,87.08
2022-11-20T02:46:42.262Z,86.74
2022-11-20T02:49:44.726Z,88.21
2022-11-20T02:52:47.416Z,87.65
2022-11-20T02:55:51.299Z,88.02
2022-11-20T02:58:53.836Z,87.98
2022-11-20T03:01:57.253Z,88.40
2022-11-20T03:04:59.959Z,87.75
2022-11-20T03:08:02.370Z,87.36
2022-11-20T03:11:08.090Z,87.89
2022-11-20T03:14:10.547Z,87.68
2022-11-20T03:17:12.954Z,89.50
2022-11-20T03:20:15.753Z,87.92
2022-11-20T03:23:18.207Z,87.84
2022-11-20T03:26:24.128Z,86.69
2022-11-20T03:29:26.820Z,86.69
2022-11-20T03:32:29.336Z,88.61
2022-11-20T03:35:31.778Z,89.07
2022-11-20T03:38:34.869Z,87.32
2022-11-20T03:41:40.533Z,88.26
2022-11-20T03:44:42.931Z,86.97
2022-11-20T03:47:46.207Z,87.39
2022-11-20T03:50:48.823Z,87.08
2022-11-20T03:53:53.283Z,88.00
2022-11-20T03:56:57.412Z,87.24
2022-11-20T04:00:00.371Z,86.80
2022-11-20T04:03:03.761Z,88.25
2022-11-20T04:06:08.462Z,87.91
2022-11-20T04:09:11.051Z,86.72
2022-11-20T04:12:14.815Z,87.03
2022-11-20T04:15:17.559Z,87.37
2022-11-20T04:18:19.941Z,87.60
2022-11-20T04:21:23.373Z,89.23
2022-11-20T04:24:25.842Z,88.41
2022-11-20T04:27:29.610Z,87.66
2022-11-20T04:30:32.111Z,87.09
2022-11-20T04:33:35.090Z,87.53
2022-11-20T04:36:37.528Z,87.97
2022-11-20T04:39:39.972Z,87.59
2022-11-20T04:42:43.871Z,88.65
2022-11-20T04:45:51.598Z,88.97
2022-11-20T04:48:54.343Z,88.75
2022-11-20T04:51:56.734Z,87.92
2022-11-20T04:54:59.136Z,87.66
2022-11-20T04:58:02.979Z,87.83
2022-11-20T05:01:07.433Z,89.14
2022-11-20T05:04:09.991Z,88.35
2022-11-20T05:07:12.421Z,87.93
2022-11-20T05:10:15.372Z,88.27
2022-11-20T05:13:19.235Z,87.68
2022-11-20T05:16:24.066Z,89.11
2022-11-20T05:19:26.812Z,88.08
2022-11-20T05:22:29.256Z,87.88
2022-11-20T05:25:31.665Z,87.92
2022-11-20T05:28:54.174Z,87.89
2022-11-20T05:31:56.587Z,87.87
2022-11-20T05:34:59.035Z,88.81
2022-11-20T05:38:01.450Z,88.03
2022-11-20T05:41:05.667Z,88.83
2022-11-20T05:44:11.389Z,87.75
2022-11-20T05:47:13.828Z,88.17
2022-11-20T05:50:16.402Z,88.84
2022-11-20T05:53:19.175Z,88.44
2022-11-20T05:56:22.836Z,88.56
2022-11-20T05:59:26.827Z,88.57
2022-11-20T06:02:29.281Z,88.48
2022-11-20T06:05:31.833Z,87.44
2022-11-20T06:08:34.715Z,87.66
2022-11-20T06:11:37.285Z,86.58
2022-11-20T06:14:41.022Z,87.62
2022-11-20T06:17:43.417Z,86.36
2022-11-20T06:20:46.166Z,87.96
2022-11-20T06:23:49.521Z,87.82
2022-11-20T06:26:52.152Z,88.15
2022-11-20T06:29:55.979Z,88.05
2022-11-20T06:32:58.398Z,87.94
2022-11-20T06:36:07.190Z,85.54
2022-11-20T06:39:11.749Z,86.36
2022-11-20T06:42:14.257Z,86.43
2022-11-20T06:45:18.076Z,86.84
2022-11-20T06:48:21.118Z,86.25
2022-11-20T06:51:23.535Z,85.95
2022-11-20T06:54:26.018Z,85.71
2022-11-20T06:57:28.438Z,85.89
2022-11-20T07:00:32.314Z,86.43
2022-11-20T07:03:34.851Z,86.01
2022-11-20T07:06:37.387Z,85.67
2022-11-20T07:09:40.256Z,83.68
2022-11-20T07:12:42.908Z,84.40
2022-11-20T07:15:46.696Z,85.19
2022-11-20T07:18:51.083Z,86.53
2022-11-20T07:21:53.894Z,85.71
2022-11-20T07:24:56.516Z,85.13
2022-11-20T07:27:59.765Z,84.63
2022-11-20T07:31:05.997Z,84.74
2022-11-20T07:34:08.726Z,84.27
2022-11-20T07:37:11.203Z,84.60
2022-11-20T07:40:13.847Z,84.60
2022-11-20T07:43:16.346Z,84.48
2022-11-20T07:46:20.158Z,83.42
2022-11-20T07:49:22.773Z,84.21
2022-11-20T07:52:25.451Z,82.23
2022-11-20T07:55:27.914Z,82.30
2022-11-20T07:58:31.320Z,82.16
2022-11-20T08:01:35.484Z,82.46
2022-11-20T08:04:37.917Z,80.76
2022-11-20T08:07:41.621Z,80.03
2022-11-20T08:10:44.070Z,82.50
2022-11-20T08:14:05.350Z,81.21
2022-11-20T08:17:09.174Z,81.85
2022-11-20T08:20:11.863Z,81.56
2022-11-20T08:23:14.705Z,81.86
2022-11-20T08:26:17.160Z,80.18
2022-11-20T08:29:19.974Z,79.84
2022-11-20T08:32:23.875Z,80.97
2022-11-20T08:35:26.333Z,79.86
2022-11-20T08:38:29.256Z,80.79
2022-11-20T08:41:34.270Z,79.88
2022-11-20T08:44:36.868Z,78.25
2022-11-20T08:47:41.043Z,78.05
2022-11-20T08:50:43.529Z,77.49
2022-11-20T08:53:46.145Z,77.90
2022-11-20T08:56:48.698Z,78.43
2022-11-20T09:00:05.412Z,78.52
2022-11-20T09:03:10.391Z,77.02
2022-11-20T09:06:13.292Z,77.28
2022-11-20T09:09:15.777Z,76.53
2022-11-20T09:12:18.315Z,76.70
2022-11-20T09:15:21.064Z,76.08
2022-11-20T09:18:25.394Z,76.71
2022-11-20T09:21:27.891Z,76.90
2022-11-20T09:24:30.897Z,77.40
2022-11-20T09:27:33.383Z,75.62
2022-11-20T09:30:36.199Z,76.02
2022-11-20T09:33:40.037Z,75.06
2022-11-20T09:36:42.452Z,75.03
2022-11-20T09:39:44.971Z,75.19
2022-11-20T09:42:55.242Z,77.51
2022-11-20T09:46:14.625Z,75.84
2022-11-20T09:49:32.280Z,75.74
2022-11-20T09:52:47.287Z,74.91
2022-11-20T09:55:50.131Z,73.81
2022-11-20T09:58:55.578Z,72.79
2022-11-20T10:02:00.220Z,73.13
2022-11-20T10:05:11.978Z,73.29
2022-11-20T10:08:21.186Z,72.63
2022-11-20T10:11:34.223Z,72.09
2022-11-20T10:14:51.651Z,73.30
2022-11-20T10:18:18.193Z,72.73
2022-11-20T10:21:31.499Z,71.78
2022-11-20T10:24:43.383Z,70.69
2022-11-20T10:28:18.981Z,70.82
2022-11-20T10:31:30.342Z,69.92
2022-11-20T10:34:48.014Z,70.52
2022-11-20T10:37:57.486Z,70.02
2022-11-20T10:41:21.426Z,70.38
2022-11-20T10:44:46.963Z,70.80
2022-11-20T10:47:49.882Z,68.81
2022-11-20T10:51:16.896Z,67.74
2022-11-20T10:54:25.456Z,69.99
2022-11-20T10:57:47.946Z,69.00
2022-11-20T11:00:50.508Z,71.02
2022-11-20T11:03:54.053Z,70.01
2022-11-20T11:07:02.169Z,70.81
2022-11-20T11:10:18.881Z,70.90
2022-11-20T11:13:23.435Z,71.58
2022-11-20T11:16:28.027Z,72.21
2022-11-20T11:19:30.512Z,71.76
2022-11-20T11:22:35.680Z,72.96
2022-11-20T11:25:40.477Z,74.10
2022-11-20T11:28:43.026Z,72.19
2022-11-20T11:31:45.421Z,73.49
2022-11-20T11:35:00.093Z,72.82
2022-11-20T11:38:10.682Z,71.31
2022-11-20T11:41:20.367Z,71.81
2022-11-20T11:44:46.748Z,70.77
2022-11-20T11:47:49.757Z,71.67
2022-11-20T11:50:53.018Z,70.88
2022-11-20T11:53:59.684Z,70.88
2022-11-20T11:57:11.672Z,71.94
2022-11-20T12:00:16.410Z,70.44
2022-11-20T12:03:22.618Z,69.51
2022-11-20T12:06:27.420Z,70.52
2022-11-20T12:09:38.594Z,68.44
2022-11-20T12:12:47.649Z,68.70
2022-11-20T12:15:50.566Z,68.02
2022-11-20T12:18:54.082Z,70.62
2022-11-20T12:22:06.407Z,71.47
2022-11-20T12:25:12.906Z,69.95
2022-11-20T12:28:42.983Z,68.55
2022-11-20T12:32:03.801Z,70.11
2022-11-20T12:35:19.276Z,70.24
2022-11-20T12:38:43.608Z,71.64
2022-11-20T12:42:22.182Z,71.24
2022-11-20T12:45:55.466Z,71.50
2022-11-20T12:49:11.058Z,71.42
2022-11-20T12:52:35.256Z,71.55
2022-11-20T12:55:48.185Z,71.54
2022-11-20T12:59:02.395Z,69.90
2022-11-20T13:02:25.920Z,71.38
2022-11-20T13:05:38.111Z,73.98
2022-11-20T13:08:42.090Z,72.13
2022-11-20T13:11:48.533Z,71.36
2022-11-20T13:14:57.154Z,73.04
2022-11-20T13:18:03.713Z,71.69
2022-11-20T13:21:15.760Z,70.90
2022-11-20T13:24:25.001Z,73.38
2022-11-20T13:27:28.029Z,72.88
2022-11-20T13:30:31.600Z,73.23
2022-11-20T13:33:37.669Z,71.89
2022-11-20T13:36:50.784Z,72.20
2022-11-20T13:39:53.498Z,73.20
2022-11-20T13:43:03.299Z,75.28
2022-11-20T13:46:07.845Z,73.46
2022-11-20T13:49:19.420Z,73.37
2022-11-20T13:52:40.437Z,73.37
2022-11-20T13:55:52.971Z,73.18
2022-11-20T13:59:05.336Z,74.38
2022-11-20T14:02:13.971Z,75.59
2022-11-20T14:05:22.707Z,74.90
2022-11-20T14:08:32.177Z,76.60
2022-11-20T14:11:34.941Z,76.30
2022-11-20T14:14:49.251Z,75.65
2022-11-20T14:17:51.947Z,76.43
2022-11-20T14:20:56.139Z,76.17
2022-11-20T14:24:05.897Z,76.50
2022-11-20T14:27:14.056Z,75.46
2022-11-20T14:30:19.351Z,75.49
2022-11-20T14:33:25.842Z,78.60
2022-11-20T14:36:29.781Z,78.63
2022-11-20T14:39:35.221Z,79.32
2022-11-20T14:42:38.403Z,76.72
2022-11-20T14:45:41.024Z,77.04
2022-11-20T14:48:47.120Z,77.72
2022-11-20T14:52:00.184Z,77.59
2022-11-20T14:55:02.796Z,76.74
2022-11-20T14:58:07.457Z,76.56
2022-11-20T15:01:15.134Z,79.04
2022-11-20T15:04:17.860Z,79.38
2022-11-20T15:07:29.900Z,80.84
2022-11-20T15:10:32.894Z,81.01
2022-11-20T15:13:38.579Z,81.68
2022-11-20T15:16:41.301Z,82.76
2022-11-20T15:19:44.416Z,79.99
2022-11-20T15:22:48.389Z,80.11
2022-11-20T15:25:51.271Z,80.35
2022-11-20T15:28:54.418Z,81.87
2022-11-20T15:31:57.534Z,82.62
2022-11-20T15:35:00.140Z,81.98
2022-11-20T15:38:04.358Z,81.90
2022-11-20T15:41:08.277Z,81.97
2022-11-20T15:44:12.209Z,81.27
2022-11-20T15:47:14.674Z,81.56
2022-11-20T15:50:18.820Z,81.90
2022-11-20T15:53:22.858Z,82.31
2022-11-20T15:56:26.244Z,81.76
2022-11-20T15:59:29.239Z,83.75
2022-11-20T16:02:32.582Z,83.01
2022-11-20T16:05:35.330Z,82.68
2022-11-20T16:08:39.408Z,80.88
2022-11-20T16:11:42.071Z,80.23
2022-11-20T16:15:03.626Z,81.86
2022-11-20T16:18:09.704Z,81.13
2022-11-20T16:21:14.232Z,80.26
2022-11-20T16:24:18.330Z,80.63
2022-11-20T16:27:22.166Z,80.45
2022-11-20T16:30:25.035Z,81.57
2022-11-20T16:33:27.724Z,81.17
2022-11-20T16:36:30.854Z,81.00
2022-11-20T16:39:35.219Z,82.11
2022-11-20T16:42:38.555Z,82.10
2022-11-20T16:45:42.492Z,81.94
2022-11-20T16:48:45.213Z,81.48
2022-11-20T16:51:48.531Z,80.65
2022-11-20T16:54:52.628Z,80.48
2022-11-20T16:57:55.396Z,79.63
2022-11-20T17:01:05.149Z,80.67
2022-11-20T17:04:07.915Z,80.89
2022-11-20T17:07:10.906Z,80.53
2022-11-20T17:10:15.352Z,80.23
2022-11-20T17:13:17.785Z,79.55
2022-11-20T17:16:23.314Z,79.73
2022-11-20T17:19:26.034Z,80.20
2022-11-20T17:22:28.711Z,80.26
2022-11-20T17:25:34.669Z,80.74
2022-11-20T17:28:38.297Z,80.10
2022-11-20T17:31:42.312Z,79.41
2022-11-20T17:34:44.975Z,79.82
2022-11-20T17:37:47.670Z,79.90
2022-11-20T17:40:51.807Z,80.67
2022-11-20T17:43:55.506Z,80.78
2022-11-20T17:46:58.235Z,81.70
2022-11-20T17:50:01.171Z,82.81
2022-11-20T17:53:04.043Z,83.57
2022-11-20T17:56:27.317Z,84.11
2022-11-20T17:59:30.093Z,83.93
2022-11-20T18:02:32.939Z,83.19
2022-11-20T18:05:35.759Z,82.77
2022-11-20T18:08:39.302Z,82.74
2022-11-20T18:11:44.055Z,82.44
2022-11-20T18:14:47.390Z,81.74
2022-11-20T18:17:50.123Z,83.85
2022-11-20T18:20:53.477Z,83.53
2022-11-20T18:23:56.781Z,83.23
2022-11-20T18:27:00.939Z,83.10
2022-11-20T18:30:04.722Z,81.28
2022-11-20T18:33:07.819Z,82.67
2022-11-20T18:36:11.233Z,81.94
2022-11-20T18:39:14.848Z,82.02
2022-11-20T18:42:37.803Z,82.19
2022-11-20T18:45:40.562Z,82.97
2022-11-20T18:48:43.827Z,83.93
2022-11-20T18:51:46.485Z,84.10
2022-11-20T18:54:50.706Z,84.74
2022-11-20T18:57:55.233Z,83.45
2022-11-20T19:01:05.079Z,83.79
2022-11-20T19:04:08.857Z,83.90
2022-11-20T19:07:14.518Z,83.93
2022-11-20T19:10:20.089Z,83.63
2022-11-20T19:13:24.339Z,82.69
2022-11-20T19:16:29.424Z,81.74
2022-11-20T19:19:32.050Z,82.56
2022-11-20T19:22:34.780Z,84.59
2022-11-20T19:25:38.490Z,85.87
2022-11-20T19:28:42.578Z,85.81
2022-11-20T19:31:45.626Z,84.89
2022-11-20T19:34:49.455Z,84.80
2022-11-20T19:37:52.294Z,85.02
2022-11-20T19:40:55.208Z,86.02
2022-11-20T19:44:00.988Z,84.09
2022-11-20T19:47:09.027Z,83.53
2022-11-20T19:50:15.933Z,84.65
2022-11-20T19:53:19.049Z,84.70
2022-11-20T19:56:23.775Z,84.83
2022-11-20T19:59:28.139Z,85.67
2022-11-20T20:02:31.096Z,84.33
2022-11-20T20:05:34.360Z,83.89
2022-11-20T20:08:37.603Z,84.39
2022-11-20T20:11:40.685Z,84.80
2022-11-20T20:14:44.472Z,84.70
2022-11-20T20:17:46.947Z,84.89
2022-11-20T20:20:49.714Z,85.20
2022-11-20T20:23:53.616Z,84.54
2022-11-20T20:26:58.266Z,84.75
2022-11-20T20:30:02.562Z,85.85
2022-11-20T20:33:05.310Z,84.81
2022-11-20T20:36:10.071Z,86.00
2022-11-20T20:39:12.810Z,86.42
2022-11-20T20:42:15.808Z,86.41
2022-11-20T20:45:19.826Z,85.75
2022-11-20T20:48:24.392Z,85.05
2022-11-20T20:51:27.414Z,85.67
2022-11-20T20:54:34.201Z,86.66
2022-11-20T20:57:37.794Z,87.31
2022-11-20T21:00:41.813Z,87.40
2022-11-20T21:03:44.508Z,87.05
2022-11-20T21:06:47.358Z,86.92
2022-11-20T21:09:50.376Z,86.41
2022-11-20T21:12:53.100Z,86.78
2022-11-20T21:15:57.189Z,87.37
2022-11-20T21:18:59.666Z,86.61
2022-11-20T21:22:04.880Z,86.27
2022-11-20T21:25:07.899Z,86.27
2022-11-20T21:28:15.481Z,86.47
2022-11-20T21:31:24.987Z,87.42
2022-11-20T21:34:27.703Z,87.62
2022-11-20T21:37:30.104Z,87.29
2022-11-20T21:40:33.279Z,87.95
2022-11-20T21:43:37.002Z,87.36
2022-11-20T21:46:42.747Z,86.99
2022-11-20T21:49:45.404Z,85.97
2022-11-20T21:52:47.970Z,85.42
2022-11-20T21:55:54.722Z,85.67
2022-11-20T21:58:57.268Z,86.15
2022-11-20T22:02:01.303Z,85.66
2022-11-20T22:05:04.148Z,85.51
2022-11-20T22:08:06.650Z,85.72
2022-11-20T22:11:11.555Z,86.44
2022-11-20T22:14:23.674Z,86.22
2022-11-20T22:17:46.458Z,86.06
2022-11-20T22:20:48.849Z,86.00
2022-11-20T22:23:51.538Z,86.79
2022-11-20T22:26:54.099Z,86.40
2022-11-20T22:29:56.551Z,85.62
2022-11-20T22:33:00.350Z,86.25
2022-11-20T22:36:04.512Z,86.63
2022-11-20T22:39:07.195Z,85.81
2022-11-20T22:42:09.620Z,85.75
2022-11-20T22:45:13.590Z,85.53
2022-11-20T22:48:17.836Z,85.65
2022-11-20T22:51:21.608Z,86.32
2022-11-20T22:54:24.418Z,86.02
2022-11-20T22:57:27.120Z,86.91
2022-11-20T23:00:29.704Z,86.03
2022-11-20T23:03:34.639Z,86.04
2022-11-20T23:06:37.610Z,86.84
2022-11-20T23:09:40.115Z,85.67
2022-11-20T23:12:42.511Z,85.74
2022-11-20T23:15:44.942Z,86.06
2022-11-20T23:18:52.955Z,85.61
2022-11-20T23:21:55.421Z,86.62
2022-11-20T23:24:57.931Z,85.64
2022-11-20T23:28:02.664Z,85.33
2022-11-20T23:31:06.142Z,85.87
2022-11-20T23:34:10.567Z,86.68
2022-11-20T23:37:12.984Z,86.98
2022-11-20T23:40:15.607Z,87.61
2022-11-20T23:43:20.095Z,87.06
2022-11-20T23:46:22.567Z,86.26
2022-11-20T23:49:26.511Z,85.60
2022-11-20T23:52:28.996Z,84.36
2022-11-20T23:55:32.218Z,84.19
2022-11-20T23:58:36.506Z,83.83
